F/V Harvestor — WDC8229 — position and weather

sailwx.info

Track history (hours):
 
Tides and Currents Weather Stations Pressure Air Temp Water Temp Dewpoint Dewpoint Depression Visibility Wind Speed Wind Dir Waves Ship Positions

F/V Harvestor

Owner: F/V HARVESTOR INC., EDMONDS, WA. More information available from US FCC via Universal Licensing System and Coast Guard Vessel Documentation Center.

Last reported at 2014-Oct-02 07:33 UTC. Time now 2014-Oct-02 08:28 UTC.
Position N 47°38' W 122°23'.

Length 40 m.

Type: Fishing. MMSI: 367083650.

Date/timePositionNaut miles runAvg speedWind from/ knotsBaromVisibWave heightAir tempDewpointWater temp
2014-Oct-02 07:33N 47°38' W 122°23'0 0.6
2014-Oct-02 07:33N 47°38' W 122°23'0 0.0
2014-Oct-02 06:33N 47°38' W 122°23'0 0.0
2014-Oct-02 06:32N 47°38' W 122°23'0 0.0
2014-Oct-02 05:57N 47°38' W 122°23'0 0.0
2014-Oct-02 05:33N 47°38' W 122°23'0 0.0
2014-Oct-02 04:33N 47°38' W 122°23'0 0.3
2014-Oct-02 04:32N 47°38' W 122°23'0 0.0
2014-Oct-02 03:33N 47°38' W 122°23'0 0.3
2014-Oct-02 03:32N 47°38' W 122°23'0 0.0
2014-Oct-02 02:33N 47°38' W 122°23'0 0.0
2014-Oct-02 02:32N 47°38' W 122°23'0 0.0
2014-Oct-02 01:33N 47°38' W 122°23'0 0.3
2014-Oct-02 01:32N 47°38' W 122°23'0 0.0
2014-Oct-02 00:33N 47°38' W 122°23'0 0.0
2014-Oct-02 00:32N 47°38' W 122°23'0 0.0
2014-Oct-01 23:33N 47°38' W 122°23'0 0.3
2014-Oct-01 23:32N 47°38' W 122°23'0 0.3
2014-Oct-01 22:33N 47°38' W 122°23'0 6.8
2014-Oct-01 22:32N 47°37' W 122°23'6 6.6
2014-Oct-01 21:33N 47°35' W 122°32'0 0.0
2014-Oct-01 21:31N 47°35' W 122°32'0 0.0
2014-Oct-01 20:33N 47°35' W 122°32'0 0.0
2014-Oct-01 19:33N 47°35' W 122°32'0 0.0
2014-Oct-01 18:51N 47°35' W 122°32'0 0.0
2014-Oct-01 18:33N 47°35' W 122°32'0 0.0
2014-Oct-01 17:33N 47°35' W 122°32'0 0.0
2014-Oct-01 16:33N 47°35' W 122°32'0 0.0
2014-Oct-01 15:33N 47°35' W 122°32'0 0.0
2014-Oct-01 14:33N 47°35' W 122°32'4 3.7
2014-Oct-01 13:33N 47°36' W 122°27'3 1.4
2014-Oct-01 11:10N 47°38' W 122°23'0 0.0
2014-Oct-01 10:33N 47°38' W 122°23'0 0.0
2014-Oct-01 09:27N 47°38' W 122°23'0 0.0
2014-Oct-01 08:33N 47°38' W 122°23'0 0.0
2014-Oct-01 07:33N 47°38' W 122°23'0 0.0
2014-Oct-01 06:33N 47°38' W 122°23'0 0.0
2014-Oct-01 05:33N 47°38' W 122°23'0 0.0
2014-Oct-01 04:33N 47°38' W 122°23'0 0.0
2014-Oct-01 03:33N 47°38' W 122°23'0 0.0
2014-Oct-01 02:33N 47°38' W 122°23'0 0.0
2014-Oct-01 01:33N 47°38' W 122°23'0 0.0
2014-Oct-01 00:33N 47°38' W 122°23'0 0.0
2014-Sep-30 23:33N 47°38' W 122°23'0 0.0
2014-Sep-30 22:33N 47°38' W 122°23'0 0.0
2014-Sep-30 21:45N 47°38' W 122°23'0 0.0
2014-Sep-30 21:33N 47°38' W 122°23'0 0.0
2014-Sep-30 21:30N 47°38' W 122°23'0 0.0
2014-Sep-30 20:24N 47°38' W 122°23'0 0.0
2014-Sep-30 16:22N 47°38' W 122°23'0 0.0
2014-Sep-30 15:33N 47°38' W 122°23'0 0.0
2014-Sep-30 14:33N 47°38' W 122°23'0 0.0
2014-Sep-30 13:33N 47°38' W 122°23'0 0.0
2014-Sep-30 12:33N 47°38' W 122°23'0 0.0
2014-Sep-30 11:33N 47°38' W 122°23'0 0.0
2014-Sep-30 10:33N 47°38' W 122°23'0 0.0
2014-Sep-30 09:33N 47°38' W 122°23'0 0.0
2014-Sep-30 08:33N 47°38' W 122°23'0 0.0
2014-Sep-30 07:33N 47°38' W 122°23'0 0.0
2014-Sep-30 06:33N 47°38' W 122°23'0 0.0
2014-Sep-30 05:33N 47°38' W 122°23'0 0.0
2014-Sep-30 04:33N 47°38' W 122°23'0 0.0
2014-Sep-30 03:33N 47°38' W 122°23'0 0.0
2014-Sep-30 02:33N 47°38' W 122°23'0 0.0
2014-Sep-30 01:33N 47°38' W 122°23'0 0.0
2014-Sep-30 00:33N 47°38' W 122°23'0 0.0
2014-Sep-29 23:33N 47°38' W 122°23'0 0.0
2014-Sep-29 22:33N 47°38' W 122°23'0 0.0
2014-Sep-29 21:33N 47°38' W 122°23'0 0.0
2014-Sep-29 20:33N 47°38' W 122°23'0 0.0
2014-Sep-29 19:33N 47°38' W 122°23'0 0.0
2014-Sep-29 18:33N 47°38' W 122°23'0 0.0
2014-Sep-29 17:33N 47°38' W 122°23'0 0.0
2014-Sep-29 16:33N 47°38' W 122°23'0 0.0
2014-Sep-29 15:33N 47°38' W 122°23'0 0.0
2014-Sep-29 14:33N 47°38' W 122°23'0 0.0
2014-Sep-29 13:33N 47°38' W 122°23'0 0.0
2014-Sep-29 12:33N 47°38' W 122°23'0 0.0
2014-Sep-29 11:33N 47°38' W 122°23'0 0.0
2014-Sep-29 10:33N 47°38' W 122°23'0 0.0
2014-Sep-29 09:33N 47°38' W 122°23'3 3.0
2014-Sep-29 08:33N 47°40' W 122°27'7 7.5
2014-Sep-29 07:33N 47°47' W 122°25'9 8.6
2014-Sep-29 06:33N 47°55' W 122°21'8 8.1
2014-Sep-29 05:33N 48°03' W 122°24'9 8.6
2014-Sep-29 04:29N 48°10' W 122°32'7 7.9
2014-Sep-29 03:33N 48°18' W 122°30'7 6.3
2014-Sep-29 02:28N 48°24' W 122°35'1 0.1
2014-Sep-28 06:28N 48°24' W 122°34'1 0.6
2014-Sep-28 05:08N 48°24' W 122°35'5 8.5
2014-Sep-28 04:33N 48°20' W 122°31'1 8.3
2014-Sep-28 04:25N 48°19' W 122°30'8 7.6
2014-Sep-28 03:23N 48°11' W 122°33'7 7.5
2014-Sep-28 02:28N 48°05' W 122°27'5 7.9
2014-Sep-28 01:47N 48°01' W 122°22'2 8.0
2014-Sep-28 01:33N 47°60' W 122°21'3 7.1
2014-Sep-28 01:07N 47°57' W 122°21'4 7.8
2014-Sep-28 00:33N 47°53' W 122°23'2 7.7
2014-Sep-28 00:17N 47°50' W 122°24'6 8.1
2014-Sep-27 23:33N 47°45' W 122°26'0 7.0
2014-Sep-27 23:32N 47°45' W 122°26'7 7.3
2014-Sep-27 22:33N 47°38' W 122°24'0 6.7
2014-Sep-27 22:32N 47°38' W 122°24'1 0.6
2014-Sep-27 21:33N 47°38' W 122°23'0 0.0
2014-Sep-27 21:32N 47°38' W 122°23'0 0.0
2014-Sep-27 20:33N 47°38' W 122°23'0 0.2
2014-Sep-27 20:31N 47°38' W 122°23'0 0.0
2014-Sep-27 19:33N 47°38' W 122°23'0 0.0
2014-Sep-27 19:31N 47°38' W 122°23'0 0.0
2014-Sep-27 18:33N 47°38' W 122°23'0 0.0
2014-Sep-27 18:31N 47°38' W 122°23'0 0.0
2014-Sep-27 17:33N 47°38' W 122°23'0 0.0
2014-Sep-27 17:31N 47°38' W 122°23'0 0.0
2014-Sep-27 16:33N 47°38' W 122°23'0 0.0
2014-Sep-27 16:31N 47°38' W 122°23'0 0.0
2014-Sep-27 15:33N 47°38' W 122°23'0 0.0
2014-Sep-27 15:30N 47°38' W 122°23'0 0.0
2014-Sep-27 14:33N 47°38' W 122°23'0 0.0
2014-Sep-27 14:25N 47°38' W 122°23'0 0.0
2014-Sep-27 13:33N 47°38' W 122°23'0 0.0
2014-Sep-27 13:30N 47°38' W 122°23'0 0.0
2014-Sep-27 12:33N 47°38' W 122°23'0 0.0
2014-Sep-27 12:30N 47°38' W 122°23'0 0.0
2014-Sep-27 11:33N 47°38' W 122°23'0 0.0
2014-Sep-27 11:23N 47°38' W 122°23'0 0.0
2014-Sep-27 10:33N 47°38' W 122°23'0 0.0
2014-Sep-27 10:32N 47°38' W 122°23'0 0.0
2014-Sep-27 09:33N 47°38' W 122°23'0 0.0
2014-Sep-27 09:32N 47°38' W 122°23'0 0.0
2014-Sep-27 08:33N 47°38' W 122°23'0 0.0
2014-Sep-27 08:32N 47°38' W 122°23'0 0.0
2014-Sep-27 07:33N 47°38' W 122°23'0 0.0
2014-Sep-27 07:32N 47°38' W 122°23'0 0.0
2014-Sep-27 06:52N 47°38' W 122°23'0 0.0
2014-Sep-27 06:33N 47°38' W 122°23'0 0.0
2014-Sep-27 05:33N 47°38' W 122°23'0 0.0
2014-Sep-27 05:32N 47°38' W 122°23'0 0.0
2014-Sep-27 04:33N 47°38' W 122°23'0 0.0
2014-Sep-27 04:31N 47°38' W 122°23'0 0.0
2014-Sep-27 03:33N 47°38' W 122°23'0 0.0
2014-Sep-27 03:31N 47°38' W 122°23'0 0.0
2014-Sep-27 02:33N 47°38' W 122°23'0 0.0
2014-Sep-27 02:31N 47°38' W 122°23'0 0.0
2014-Sep-27 01:33N 47°38' W 122°23'0 0.0
2014-Sep-27 01:31N 47°38' W 122°23'0 0.0
2014-Sep-27 00:33N 47°38' W 122°23'0 0.0
2014-Sep-27 00:31N 47°38' W 122°23'0 0.0
2014-Sep-26 23:33N 47°38' W 122°23'0 0.0
2014-Sep-26 23:30N 47°38' W 122°23'0 0.0
2014-Sep-26 22:33N 47°38' W 122°23'0 0.0
2014-Sep-26 22:30N 47°38' W 122°23'0 0.0
2014-Sep-26 21:29N 47°38' W 122°23'0 0.0
2014-Sep-26 21:29N 47°38' W 122°23'0 0.0
2014-Sep-26 20:33N 47°38' W 122°23'0 0.0
2014-Sep-26 20:33N 47°38' W 122°23'0 0.0
2014-Sep-26 19:33N 47°38' W 122°23'0 0.0
2014-Sep-26 19:33N 47°38' W 122°23'0 0.0
2014-Sep-26 18:33N 47°38' W 122°23'0 0.0
2014-Sep-26 18:33N 47°38' W 122°23'0 0.0
2014-Sep-26 17:33N 47°38' W 122°23'0 0.0
2014-Sep-26 17:33N 47°38' W 122°23'0 0.0
2014-Sep-26 16:33N 47°38' W 122°23'0 0.0
2014-Sep-26 16:33N 47°38' W 122°23'0 0.0
2014-Sep-26 15:33N 47°38' W 122°23'0 0.0
2014-Sep-26 15:32N 47°38' W 122°23'0 0.0
2014-Sep-26 14:33N 47°38' W 122°23'0 0.0
2014-Sep-26 14:32N 47°38' W 122°23'0 0.0
2014-Sep-26 13:33N 47°38' W 122°23'0 0.0
2014-Sep-26 13:32N 47°38' W 122°23'0 0.0
2014-Sep-26 12:33N 47°38' W 122°23'0 0.0
2014-Sep-26 12:32N 47°38' W 122°23'0 0.0
2014-Sep-26 11:33N 47°38' W 122°23'0 0.0
2014-Sep-26 11:31N 47°38' W 122°23'0 0.0
2014-Sep-26 10:33N 47°38' W 122°23'0 0.0
2014-Sep-26 10:31N 47°38' W 122°23'0 0.0
2014-Sep-26 09:33N 47°38' W 122°23'0 0.2
2014-Sep-26 09:31N 47°38' W 122°23'0 0.0
2014-Sep-26 08:33N 47°38' W 122°23'0 0.0
2014-Sep-26 08:30N 47°38' W 122°23'0 0.0
2014-Sep-26 07:33N 47°38' W 122°23'0 0.0
2014-Sep-26 07:30N 47°38' W 122°23'0 0.0
2014-Sep-26 06:33N 47°38' W 122°23'0 0.0
2014-Sep-26 06:30N 47°38' W 122°23'0 0.0
2014-Sep-26 05:59N 47°38' W 122°23'0 0.0
2014-Sep-26 05:33N 47°38' W 122°23'0 0.0
2014-Sep-26 04:33N 47°38' W 122°23'0 0.0
2014-Sep-26 04:29N 47°38' W 122°23'0 0.0
2014-Sep-26 03:33N 47°38' W 122°23'0 0.0
2014-Sep-26 03:29N 47°38' W 122°23'0 0.0
2014-Sep-26 02:33N 47°38' W 122°23'0 0.0
2014-Sep-26 02:29N 47°38' W 122°23'0 0.0
2014-Sep-26 01:33N 47°38' W 122°23'0 0.0
2014-Sep-26 01:16N 47°38' W 122°23'0 0.0
2014-Sep-26 00:33N 47°38' W 122°23'0 0.0
2014-Sep-26 00:20N 47°38' W 122°23'0 0.0
2014-Sep-25 23:33N 47°38' W 122°23'0 0.0
2014-Sep-25 23:30N 47°38' W 122°23'0 0.0
2014-Sep-25 22:33N 47°38' W 122°23'0 0.0
2014-Sep-25 22:30N 47°38' W 122°23'3 2.8
2014-Sep-25 21:33N 47°36' W 122°26'1 8.2
2014-Sep-25 21:30N 47°36' W 122°26'4 4.1
2014-Sep-25 20:33N 47°35' W 122°32'0 0.0
2014-Sep-25 20:14N 47°35' W 122°32'0 0.0
2014-Sep-25 19:33N 47°35' W 122°32'0 0.0
2014-Sep-25 19:08N 47°35' W 122°32'0 0.0
2014-Sep-25 18:33N 47°35' W 122°32'0 0.0
2014-Sep-25 18:28N 47°35' W 122°32'0 0.0
2014-Sep-25 17:33N 47°35' W 122°32'0 0.0
2014-Sep-25 17:28N 47°35' W 122°32'0 0.0
2014-Sep-25 16:33N 47°35' W 122°32'0 0.0
2014-Sep-25 16:14N 47°35' W 122°32'0 0.0
2014-Sep-25 15:33N 47°35' W 122°32'0 0.0
2014-Sep-25 15:29N 47°35' W 122°32'0 0.0
2014-Sep-25 14:33N 47°35' W 122°32'0 0.0
2014-Sep-25 14:33N 47°35' W 122°32'5 5.0
2014-Sep-25 13:33N 47°37' W 122°25'0 5.7
2014-Sep-25 13:33N 47°37' W 122°25'2 1.9
2014-Sep-25 12:33N 47°38' W 122°23'0 0.0
2014-Sep-25 12:32N 47°38' W 122°23'0 0.0
2014-Sep-25 11:33N 47°38' W 122°23'0 0.0
2014-Sep-25 11:32N 47°38' W 122°23'0 0.0
2014-Sep-25 10:33N 47°38' W 122°23'0 0.0
2014-Sep-25 10:33N 47°38' W 122°23'0 0.0
2014-Sep-25 09:20N 47°38' W 122°23'0 0.0
2014-Sep-25 09:15N 47°38' W 122°23'0 0.0
2014-Sep-25 08:33N 47°38' W 122°23'0 0.0
2014-Sep-25 08:31N 47°38' W 122°23'0 0.0
2014-Sep-25 07:33N 47°38' W 122°23'0 0.1
2014-Sep-25 07:31N 47°38' W 122°23'0 0.0
2014-Sep-25 06:33N 47°38' W 122°23'0 0.0
2014-Sep-25 06:31N 47°38' W 122°23'0 0.0
2014-Sep-25 06:00N 47°38' W 122°23'0 0.0
2014-Sep-25 05:33N 47°38' W 122°23'0 0.0
2014-Sep-25 04:33N 47°38' W 122°23'0 0.0
2014-Sep-25 04:30N 47°38' W 122°23'0 0.0
2014-Sep-25 03:33N 47°38' W 122°23'0 0.0
2014-Sep-25 03:29N 47°38' W 122°23'0 0.0
2014-Sep-25 02:33N 47°38' W 122°23'0 0.0
2014-Sep-25 02:30N 47°38' W 122°23'0 0.0
2014-Sep-25 01:33N 47°38' W 122°23'0 0.0
2014-Sep-25 01:29N 47°38' W 122°23'0 0.0
2014-Sep-25 00:33N 47°38' W 122°23'0 0.0
2014-Sep-25 00:29N 47°38' W 122°23'0 0.0
2014-Sep-24 23:33N 47°38' W 122°23'0 0.0
2014-Sep-24 23:29N 47°38' W 122°23'0 0.0
2014-Sep-24 22:33N 47°38' W 122°23'0 0.0
2014-Sep-24 22:29N 47°38' W 122°23'0 0.0
2014-Sep-24 21:33N 47°38' W 122°23'0 0.0
2014-Sep-24 21:33N 47°38' W 122°23'0 0.0
2014-Sep-24 20:34N 47°38' W 122°23'0 0.0
2014-Sep-24 20:33N 47°38' W 122°23'0 0.0
2014-Sep-24 19:33N 47°38' W 122°23'0 0.0
2014-Sep-24 19:33N 47°38' W 122°23'0 0.0
2014-Sep-24 18:33N 47°38' W 122°23'0 0.0
2014-Sep-24 18:33N 47°38' W 122°23'0 0.0
2014-Sep-24 17:31N 47°38' W 122°23'0 0.0
2014-Sep-24 17:28N 47°38' W 122°23'0 0.0
2014-Sep-24 16:33N 47°38' W 122°23'0 0.0
2014-Sep-24 16:33N 47°38' W 122°23'0 0.0
2014-Sep-24 15:33N 47°38' W 122°23'0 0.0
2014-Sep-24 15:32N 47°38' W 122°23'0 0.0
2014-Sep-24 14:33N 47°38' W 122°23'0 0.0
2014-Sep-24 14:32N 47°38' W 122°23'0 0.0
2014-Sep-24 13:33N 47°38' W 122°23'0 0.0
2014-Sep-24 13:32N 47°38' W 122°23'0 0.0
2014-Sep-24 12:33N 47°38' W 122°23'0 0.0
2014-Sep-24 12:32N 47°38' W 122°23'0 0.0
2014-Sep-24 11:33N 47°38' W 122°23'0 0.0
2014-Sep-24 11:32N 47°38' W 122°23'0 0.0
2014-Sep-24 10:33N 47°38' W 122°23'0 0.2
2014-Sep-24 10:32N 47°38' W 122°23'0 0.0
2014-Sep-24 09:33N 47°38' W 122°23'0 0.0
2014-Sep-24 09:31N 47°38' W 122°23'0 0.0
2014-Sep-24 08:33N 47°38' W 122°23'0 0.0
2014-Sep-24 08:31N 47°38' W 122°23'0 0.0
2014-Sep-24 07:33N 47°38' W 122°23'0 0.0
2014-Sep-24 07:31N 47°38' W 122°23'1 1.5
2014-Sep-24 06:33N 47°38' W 122°25'0 6.5
2014-Sep-24 06:30N 47°39' W 122°25'4 7.1
2014-Sep-24 05:56N 47°43' W 122°26'3 7.3
2014-Sep-24 05:33N 47°45' W 122°25'7 7.1
2014-Sep-24 04:33N 47°52' W 122°23'0 8.3
2014-Sep-24 04:30N 47°53' W 122°22'8 8.2
2014-Sep-24 03:33N 48°00' W 122°21'8 7.5
2014-Sep-24 02:32N 48°06' W 122°29'8 7.5
2014-Sep-24 01:32N 48°13' W 122°33'7 6.7
2014-Sep-24 00:32N 48°20' W 122°31'5 3.7
2014-Sep-23 23:07N 48°24' W 122°34'0 0.0
2014-Sep-23 22:11N 48°24' W 122°34'0 0.0
2014-Sep-23 21:17N 48°24' W 122°34'0 0.0
2014-Sep-23 12:33N 48°24' W 122°34'0 0.0
2014-Sep-23 11:09N 48°24' W 122°34'0 0.1
2014-Sep-23 03:28N 48°24' W 122°34'7 8.0
2014-Sep-23 02:33N 48°18' W 122°30'9 8.0
2014-Sep-23 01:27N 48°09' W 122°32'7 8.1
2014-Sep-23 00:33N 48°03' W 122°24'8 8.0
2014-Sep-22 23:33N 47°56' W 122°21'9 8.5
2014-Sep-22 22:33N 47°48' W 122°25'8 8.4
2014-Sep-22 21:33N 47°40' W 122°27'3 2.9
2014-Sep-22 20:33N 47°38' W 122°23'0 0.0
2014-Sep-22 19:33N 47°38' W 122°23'0 0.0
2014-Sep-22 18:33N 47°38' W 122°23'0 0.0
2014-Sep-22 17:33N 47°38' W 122°23'0 0.0
2014-Sep-22 16:33N 47°38' W 122°23'0 0.0
2014-Sep-22 15:13N 47°38' W 122°23'0 0.1
2014-Sep-22 14:33N 47°38' W 122°23'0 0.0
2014-Sep-22 13:27N 47°38' W 122°23'0 0.0
2014-Sep-22 12:33N 47°38' W 122°23'0 0.0
2014-Sep-22 11:33N 47°38' W 122°23'0 0.0
2014-Sep-22 10:33N 47°38' W 122°23'0 0.0
2014-Sep-22 09:32N 47°38' W 122°23'0 0.0
2014-Sep-22 08:33N 47°38' W 122°23'  
Track history (hours):
 
Tides and Currents Weather Stations Pressure Air Temp Water Temp Dewpoint Dewpoint Depression Visibility Wind Speed Wind Dir Waves Ship Positions

F/V Harvestor

Owner: F/V HARVESTOR INC., EDMONDS, WA. More information available from US FCC via Universal Licensing System and Coast Guard Vessel Documentation Center.

Last reported at 2014-Oct-02 07:33 UTC. Time now 2014-Oct-02 08:28 UTC.
Position N 47°38' W 122°23'.

Length 40 m.

Type: Fishing. MMSI: 367083650.

Date/timePositionNaut miles runAvg speedWind from/ knotsBaromVisibWave heightAir tempDewpointWater temp
2014-Oct-02 07:33N 47°38' W 122°23'0 0.6
2014-Oct-02 07:33N 47°38' W 122°23'0 0.0
2014-Oct-02 06:33N 47°38' W 122°23'0 0.0
2014-Oct-02 06:32N 47°38' W 122°23'0 0.0
2014-Oct-02 05:57N 47°38' W 122°23'0 0.0
2014-Oct-02 05:33N 47°38' W 122°23'0 0.0
2014-Oct-02 04:33N 47°38' W 122°23'0 0.3
2014-Oct-02 04:32N 47°38' W 122°23'0 0.0
2014-Oct-02 03:33N 47°38' W 122°23'0 0.3
2014-Oct-02 03:32N 47°38' W 122°23'0 0.0
2014-Oct-02 02:33N 47°38' W 122°23'0 0.0
2014-Oct-02 02:32N 47°38' W 122°23'0 0.0
2014-Oct-02 01:33N 47°38' W 122°23'0 0.3
2014-Oct-02 01:32N 47°38' W 122°23'0 0.0
2014-Oct-02 00:33N 47°38' W 122°23'0 0.0
2014-Oct-02 00:32N 47°38' W 122°23'0 0.0
2014-Oct-01 23:33N 47°38' W 122°23'0 0.3
2014-Oct-01 23:32N 47°38' W 122°23'0 0.3
2014-Oct-01 22:33N 47°38' W 122°23'0 6.8
2014-Oct-01 22:32N 47°37' W 122°23'6 6.6
2014-Oct-01 21:33N 47°35' W 122°32'0 0.0
2014-Oct-01 21:31N 47°35' W 122°32'0 0.0
2014-Oct-01 20:33N 47°35' W 122°32'0 0.0
2014-Oct-01 19:33N 47°35' W 122°32'0 0.0
2014-Oct-01 18:51N 47°35' W 122°32'0 0.0
2014-Oct-01 18:33N 47°35' W 122°32'0 0.0
2014-Oct-01 17:33N 47°35' W 122°32'0 0.0
2014-Oct-01 16:33N 47°35' W 122°32'0 0.0
2014-Oct-01 15:33N 47°35' W 122°32'0 0.0
2014-Oct-01 14:33N 47°35' W 122°32'4 3.7
2014-Oct-01 13:33N 47°36' W 122°27'3 1.4
2014-Oct-01 11:10N 47°38' W 122°23'0 0.0
2014-Oct-01 10:33N 47°38' W 122°23'0 0.0
2014-Oct-01 09:27N 47°38' W 122°23'0 0.0
2014-Oct-01 08:33N 47°38' W 122°23'0 0.0
2014-Oct-01 07:33N 47°38' W 122°23'0 0.0
2014-Oct-01 06:33N 47°38' W 122°23'0 0.0
2014-Oct-01 05:33N 47°38' W 122°23'0 0.0
2014-Oct-01 04:33N 47°38' W 122°23'0 0.0
2014-Oct-01 03:33N 47°38' W 122°23'0 0.0
2014-Oct-01 02:33N 47°38' W 122°23'0 0.0
2014-Oct-01 01:33N 47°38' W 122°23'0 0.0
2014-Oct-01 00:33N 47°38' W 122°23'0 0.0
2014-Sep-30 23:33N 47°38' W 122°23'0 0.0
2014-Sep-30 22:33N 47°38' W 122°23'0 0.0
2014-Sep-30 21:45N 47°38' W 122°23'0 0.0
2014-Sep-30 21:33N 47°38' W 122°23'0 0.0
2014-Sep-30 21:30N 47°38' W 122°23'0 0.0
2014-Sep-30 20:24N 47°38' W 122°23'0 0.0
2014-Sep-30 16:22N 47°38' W 122°23'0 0.0
2014-Sep-30 15:33N 47°38' W 122°23'0 0.0
2014-Sep-30 14:33N 47°38' W 122°23'0 0.0
2014-Sep-30 13:33N 47°38' W 122°23'0 0.0
2014-Sep-30 12:33N 47°38' W 122°23'0 0.0
2014-Sep-30 11:33N 47°38' W 122°23'0 0.0
2014-Sep-30 10:33N 47°38' W 122°23'0 0.0
2014-Sep-30 09:33N 47°38' W 122°23'0 0.0
2014-Sep-30 08:33N 47°38' W 122°23'0 0.0
2014-Sep-30 07:33N 47°38' W 122°23'0 0.0
2014-Sep-30 06:33N 47°38' W 122°23'0 0.0
2014-Sep-30 05:33N 47°38' W 122°23'0 0.0
2014-Sep-30 04:33N 47°38' W 122°23'0 0.0
2014-Sep-30 03:33N 47°38' W 122°23'0 0.0
2014-Sep-30 02:33N 47°38' W 122°23'0 0.0
2014-Sep-30 01:33N 47°38' W 122°23'0 0.0
2014-Sep-30 00:33N 47°38' W 122°23'0 0.0
2014-Sep-29 23:33N 47°38' W 122°23'0 0.0
2014-Sep-29 22:33N 47°38' W 122°23'0 0.0
2014-Sep-29 21:33N 47°38' W 122°23'0 0.0
2014-Sep-29 20:33N 47°38' W 122°23'0 0.0
2014-Sep-29 19:33N 47°38' W 122°23'0 0.0
2014-Sep-29 18:33N 47°38' W 122°23'0 0.0
2014-Sep-29 17:33N 47°38' W 122°23'0 0.0
2014-Sep-29 16:33N 47°38' W 122°23'0 0.0
2014-Sep-29 15:33N 47°38' W 122°23'0 0.0
2014-Sep-29 14:33N 47°38' W 122°23'0 0.0
2014-Sep-29 13:33N 47°38' W 122°23'0 0.0
2014-Sep-29 12:33N 47°38' W 122°23'0 0.0
2014-Sep-29 11:33N 47°38' W 122°23'0 0.0
2014-Sep-29 10:33N 47°38' W 122°23'0 0.0
2014-Sep-29 09:33N 47°38' W 122°23'3 3.0
2014-Sep-29 08:33N 47°40' W 122°27'7 7.5
2014-Sep-29 07:33N 47°47' W 122°25'9 8.6
2014-Sep-29 06:33N 47°55' W 122°21'8 8.1
2014-Sep-29 05:33N 48°03' W 122°24'9 8.6
2014-Sep-29 04:29N 48°10' W 122°32'7 7.9
2014-Sep-29 03:33N 48°18' W 122°30'7 6.3
2014-Sep-29 02:28N 48°24' W 122°35'1 0.1
2014-Sep-28 06:28N 48°24' W 122°34'1 0.6
2014-Sep-28 05:08N 48°24' W 122°35'5 8.5
2014-Sep-28 04:33N 48°20' W 122°31'1 8.3
2014-Sep-28 04:25N 48°19' W 122°30'8 7.6
2014-Sep-28 03:23N 48°11' W 122°33'7 7.5
2014-Sep-28 02:28N 48°05' W 122°27'5 7.9
2014-Sep-28 01:47N 48°01' W 122°22'2 8.0
2014-Sep-28 01:33N 47°60' W 122°21'3 7.1
2014-Sep-28 01:07N 47°57' W 122°21'4 7.8
2014-Sep-28 00:33N 47°53' W 122°23'2 7.7
2014-Sep-28 00:17N 47°50' W 122°24'6 8.1
2014-Sep-27 23:33N 47°45' W 122°26'0 7.0
2014-Sep-27 23:32N 47°45' W 122°26'7 7.3
2014-Sep-27 22:33N 47°38' W 122°24'0 6.7
2014-Sep-27 22:32N 47°38' W 122°24'1 0.6
2014-Sep-27 21:33N 47°38' W 122°23'0 0.0
2014-Sep-27 21:32N 47°38' W 122°23'0 0.0
2014-Sep-27 20:33N 47°38' W 122°23'0 0.2
2014-Sep-27 20:31N 47°38' W 122°23'0 0.0
2014-Sep-27 19:33N 47°38' W 122°23'0 0.0
2014-Sep-27 19:31N 47°38' W 122°23'0 0.0
2014-Sep-27 18:33N 47°38' W 122°23'0 0.0
2014-Sep-27 18:31N 47°38' W 122°23'0 0.0
2014-Sep-27 17:33N 47°38' W 122°23'0 0.0
2014-Sep-27 17:31N 47°38' W 122°23'0 0.0
2014-Sep-27 16:33N 47°38' W 122°23'0 0.0
2014-Sep-27 16:31N 47°38' W 122°23'0 0.0
2014-Sep-27 15:33N 47°38' W 122°23'0 0.0
2014-Sep-27 15:30N 47°38' W 122°23'0 0.0
2014-Sep-27 14:33N 47°38' W 122°23'0 0.0
2014-Sep-27 14:25N 47°38' W 122°23'0 0.0
2014-Sep-27 13:33N 47°38' W 122°23'0 0.0
2014-Sep-27 13:30N 47°38' W 122°23'0 0.0
2014-Sep-27 12:33N 47°38' W 122°23'0 0.0
2014-Sep-27 12:30N 47°38' W 122°23'0 0.0
2014-Sep-27 11:33N 47°38' W 122°23'0 0.0
2014-Sep-27 11:23N 47°38' W 122°23'0 0.0
2014-Sep-27 10:33N 47°38' W 122°23'0 0.0
2014-Sep-27 10:32N 47°38' W 122°23'0 0.0
2014-Sep-27 09:33N 47°38' W 122°23'0 0.0
2014-Sep-27 09:32N 47°38' W 122°23'0 0.0
2014-Sep-27 08:33N 47°38' W 122°23'0 0.0
2014-Sep-27 08:32N 47°38' W 122°23'0 0.0
2014-Sep-27 07:33N 47°38' W 122°23'0 0.0
2014-Sep-27 07:32N 47°38' W 122°23'0 0.0
2014-Sep-27 06:52N 47°38' W 122°23'0 0.0
2014-Sep-27 06:33N 47°38' W 122°23'0 0.0
2014-Sep-27 05:33N 47°38' W 122°23'0 0.0
2014-Sep-27 05:32N 47°38' W 122°23'0 0.0
2014-Sep-27 04:33N 47°38' W 122°23'0 0.0
2014-Sep-27 04:31N 47°38' W 122°23'0 0.0
2014-Sep-27 03:33N 47°38' W 122°23'0 0.0
2014-Sep-27 03:31N 47°38' W 122°23'0 0.0
2014-Sep-27 02:33N 47°38' W 122°23'0 0.0
2014-Sep-27 02:31N 47°38' W 122°23'0 0.0
2014-Sep-27 01:33N 47°38' W 122°23'0 0.0
2014-Sep-27 01:31N 47°38' W 122°23'0 0.0
2014-Sep-27 00:33N 47°38' W 122°23'0 0.0
2014-Sep-27 00:31N 47°38' W 122°23'0 0.0
2014-Sep-26 23:33N 47°38' W 122°23'0 0.0
2014-Sep-26 23:30N 47°38' W 122°23'0 0.0
2014-Sep-26 22:33N 47°38' W 122°23'0 0.0
2014-Sep-26 22:30N 47°38' W 122°23'0 0.0
2014-Sep-26 21:29N 47°38' W 122°23'0 0.0
2014-Sep-26 21:29N 47°38' W 122°23'0 0.0
2014-Sep-26 20:33N 47°38' W 122°23'0 0.0
2014-Sep-26 20:33N 47°38' W 122°23'0 0.0
2014-Sep-26 19:33N 47°38' W 122°23'0 0.0
2014-Sep-26 19:33N 47°38' W 122°23'0 0.0
2014-Sep-26 18:33N 47°38' W 122°23'0 0.0
2014-Sep-26 18:33N 47°38' W 122°23'0 0.0
2014-Sep-26 17:33N 47°38' W 122°23'0 0.0
2014-Sep-26 17:33N 47°38' W 122°23'0 0.0
2014-Sep-26 16:33N 47°38' W 122°23'0 0.0
2014-Sep-26 16:33N 47°38' W 122°23'0 0.0
2014-Sep-26 15:33N 47°38' W 122°23'0 0.0
2014-Sep-26 15:32N 47°38' W 122°23'0 0.0
2014-Sep-26 14:33N 47°38' W 122°23'0 0.0
2014-Sep-26 14:32N 47°38' W 122°23'0 0.0
2014-Sep-26 13:33N 47°38' W 122°23'0 0.0
2014-Sep-26 13:32N 47°38' W 122°23'0 0.0
2014-Sep-26 12:33N 47°38' W 122°23'0 0.0
2014-Sep-26 12:32N 47°38' W 122°23'0 0.0
2014-Sep-26 11:33N 47°38' W 122°23'0 0.0
2014-Sep-26 11:31N 47°38' W 122°23'0 0.0
2014-Sep-26 10:33N 47°38' W 122°23'0 0.0
2014-Sep-26 10:31N 47°38' W 122°23'0 0.0
2014-Sep-26 09:33N 47°38' W 122°23'0 0.2
2014-Sep-26 09:31N 47°38' W 122°23'0 0.0
2014-Sep-26 08:33N 47°38' W 122°23'0 0.0
2014-Sep-26 08:30N 47°38' W 122°23'0 0.0
2014-Sep-26 07:33N 47°38' W 122°23'0 0.0
2014-Sep-26 07:30N 47°38' W 122°23'0 0.0
2014-Sep-26 06:33N 47°38' W 122°23'0 0.0
2014-Sep-26 06:30N 47°38' W 122°23'0 0.0
2014-Sep-26 05:59N 47°38' W 122°23'0 0.0
2014-Sep-26 05:33N 47°38' W 122°23'0 0.0
2014-Sep-26 04:33N 47°38' W 122°23'0 0.0
2014-Sep-26 04:29N 47°38' W 122°23'0 0.0
2014-Sep-26 03:33N 47°38' W 122°23'0 0.0
2014-Sep-26 03:29N 47°38' W 122°23'0 0.0
2014-Sep-26 02:33N 47°38' W 122°23'0 0.0
2014-Sep-26 02:29N 47°38' W 122°23'0 0.0
2014-Sep-26 01:33N 47°38' W 122°23'0 0.0
2014-Sep-26 01:16N 47°38' W 122°23'0 0.0
2014-Sep-26 00:33N 47°38' W 122°23'0 0.0
2014-Sep-26 00:20N 47°38' W 122°23'0 0.0
2014-Sep-25 23:33N 47°38' W 122°23'0 0.0
2014-Sep-25 23:30N 47°38' W 122°23'0 0.0
2014-Sep-25 22:33N 47°38' W 122°23'0 0.0
2014-Sep-25 22:30N 47°38' W 122°23'3 2.8
2014-Sep-25 21:33N 47°36' W 122°26'1 8.2
2014-Sep-25 21:30N 47°36' W 122°26'4 4.1
2014-Sep-25 20:33N 47°35' W 122°32'0 0.0
2014-Sep-25 20:14N 47°35' W 122°32'0 0.0
2014-Sep-25 19:33N 47°35' W 122°32'0 0.0
2014-Sep-25 19:08N 47°35' W 122°32'0 0.0
2014-Sep-25 18:33N 47°35' W 122°32'0 0.0
2014-Sep-25 18:28N 47°35' W 122°32'0 0.0
2014-Sep-25 17:33N 47°35' W 122°32'0 0.0
2014-Sep-25 17:28N 47°35' W 122°32'0 0.0
2014-Sep-25 16:33N 47°35' W 122°32'0 0.0
2014-Sep-25 16:14N 47°35' W 122°32'0 0.0
2014-Sep-25 15:33N 47°35' W 122°32'0 0.0
2014-Sep-25 15:29N 47°35' W 122°32'0 0.0
2014-Sep-25 14:33N 47°35' W 122°32'0 0.0
2014-Sep-25 14:33N 47°35' W 122°32'5 5.0
2014-Sep-25 13:33N 47°37' W 122°25'0 5.7
2014-Sep-25 13:33N 47°37' W 122°25'2 1.9
2014-Sep-25 12:33N 47°38' W 122°23'0 0.0
2014-Sep-25 12:32N 47°38' W 122°23'0 0.0
2014-Sep-25 11:33N 47°38' W 122°23'0 0.0
2014-Sep-25 11:32N 47°38' W 122°23'0 0.0
2014-Sep-25 10:33N 47°38' W 122°23'0 0.0
2014-Sep-25 10:33N 47°38' W 122°23'0 0.0
2014-Sep-25 09:20N 47°38' W 122°23'0 0.0
2014-Sep-25 09:15N 47°38' W 122°23'0 0.0
2014-Sep-25 08:33N 47°38' W 122°23'0 0.0
2014-Sep-25 08:31N 47°38' W 122°23'0 0.0
2014-Sep-25 07:33N 47°38' W 122°23'0 0.1
2014-Sep-25 07:31N 47°38' W 122°23'0 0.0
2014-Sep-25 06:33N 47°38' W 122°23'0 0.0
2014-Sep-25 06:31N 47°38' W 122°23'0 0.0
2014-Sep-25 06:00N 47°38' W 122°23'0 0.0
2014-Sep-25 05:33N 47°38' W 122°23'0 0.0
2014-Sep-25 04:33N 47°38' W 122°23'0 0.0
2014-Sep-25 04:30N 47°38' W 122°23'0 0.0
2014-Sep-25 03:33N 47°38' W 122°23'0 0.0
2014-Sep-25 03:29N 47°38' W 122°23'0 0.0
2014-Sep-25 02:33N 47°38' W 122°23'0 0.0
2014-Sep-25 02:30N 47°38' W 122°23'0 0.0
2014-Sep-25 01:33N 47°38' W 122°23'0 0.0
2014-Sep-25 01:29N 47°38' W 122°23'0 0.0
2014-Sep-25 00:33N 47°38' W 122°23'0 0.0
2014-Sep-25 00:29N 47°38' W 122°23'0 0.0
2014-Sep-24 23:33N 47°38' W 122°23'0 0.0
2014-Sep-24 23:29N 47°38' W 122°23'0 0.0
2014-Sep-24 22:33N 47°38' W 122°23'0 0.0
2014-Sep-24 22:29N 47°38' W 122°23'0 0.0
2014-Sep-24 21:33N 47°38' W 122°23'0 0.0
2014-Sep-24 21:33N 47°38' W 122°23'0 0.0
2014-Sep-24 20:34N 47°38' W 122°23'0 0.0
2014-Sep-24 20:33N 47°38' W 122°23'0 0.0
2014-Sep-24 19:33N 47°38' W 122°23'0 0.0
2014-Sep-24 19:33N 47°38' W 122°23'0 0.0
2014-Sep-24 18:33N 47°38' W 122°23'0 0.0
2014-Sep-24 18:33N 47°38' W 122°23'0 0.0
2014-Sep-24 17:31N 47°38' W 122°23'0 0.0
2014-Sep-24 17:28N 47°38' W 122°23'0 0.0
2014-Sep-24 16:33N 47°38' W 122°23'0 0.0
2014-Sep-24 16:33N 47°38' W 122°23'0 0.0
2014-Sep-24 15:33N 47°38' W 122°23'0 0.0
2014-Sep-24 15:32N 47°38' W 122°23'0 0.0
2014-Sep-24 14:33N 47°38' W 122°23'0 0.0
2014-Sep-24 14:32N 47°38' W 122°23'0 0.0
2014-Sep-24 13:33N 47°38' W 122°23'0 0.0
2014-Sep-24 13:32N 47°38' W 122°23'0 0.0
2014-Sep-24 12:33N 47°38' W 122°23'0 0.0
2014-Sep-24 12:32N 47°38' W 122°23'0 0.0
2014-Sep-24 11:33N 47°38' W 122°23'0 0.0
2014-Sep-24 11:32N 47°38' W 122°23'0 0.0
2014-Sep-24 10:33N 47°38' W 122°23'0 0.2
2014-Sep-24 10:32N 47°38' W 122°23'0 0.0
2014-Sep-24 09:33N 47°38' W 122°23'0 0.0
2014-Sep-24 09:31N 47°38' W 122°23'0 0.0
2014-Sep-24 08:33N 47°38' W 122°23'0 0.0
2014-Sep-24 08:31N 47°38' W 122°23'0 0.0
2014-Sep-24 07:33N 47°38' W 122°23'0 0.0
2014-Sep-24 07:31N 47°38' W 122°23'1 1.5
2014-Sep-24 06:33N 47°38' W 122°25'0 6.5
2014-Sep-24 06:30N 47°39' W 122°25'4 7.1
2014-Sep-24 05:56N 47°43' W 122°26'3 7.3
2014-Sep-24 05:33N 47°45' W 122°25'7 7.1
2014-Sep-24 04:33N 47°52' W 122°23'0 8.3
2014-Sep-24 04:30N 47°53' W 122°22'8 8.2
2014-Sep-24 03:33N 48°00' W 122°21'8 7.5
2014-Sep-24 02:32N 48°06' W 122°29'8 7.5
2014-Sep-24 01:32N 48°13' W 122°33'7 6.7
2014-Sep-24 00:32N 48°20' W 122°31'5 3.7
2014-Sep-23 23:07N 48°24' W 122°34'0 0.0
2014-Sep-23 22:11N 48°24' W 122°34'0 0.0
2014-Sep-23 21:17N 48°24' W 122°34'0 0.0
2014-Sep-23 12:33N 48°24' W 122°34'0 0.0
2014-Sep-23 11:09N 48°24' W 122°34'0 0.1
2014-Sep-23 03:28N 48°24' W 122°34'7 8.0
2014-Sep-23 02:33N 48°18' W 122°30'9 8.0
2014-Sep-23 01:27N 48°09' W 122°32'7 8.1
2014-Sep-23 00:33N 48°03' W 122°24'8 8.0
2014-Sep-22 23:33N 47°56' W 122°21'9 8.5
2014-Sep-22 22:33N 47°48' W 122°25'8 8.4
2014-Sep-22 21:33N 47°40' W 122°27'3 2.9
2014-Sep-22 20:33N 47°38' W 122°23'0 0.0
2014-Sep-22 19:33N 47°38' W 122°23'0 0.0
2014-Sep-22 18:33N 47°38' W 122°23'0 0.0
2014-Sep-22 17:33N 47°38' W 122°23'0 0.0
2014-Sep-22 16:33N 47°38' W 122°23'0 0.0
2014-Sep-22 15:13N 47°38' W 122°23'0 0.1
2014-Sep-22 14:33N 47°38' W 122°23'0 0.0
2014-Sep-22 13:27N 47°38' W 122°23'0 0.0
2014-Sep-22 12:33N 47°38' W 122°23'0 0.0
2014-Sep-22 11:33N 47°38' W 122°23'0 0.0
2014-Sep-22 10:33N 47°38' W 122°23'0 0.0
2014-Sep-22 09:32N 47°38' W 122°23'0 0.0
2014-Sep-22 08:33N 47°38' W 122°23'  

Dump ship's entire track history